Time;durP1;ratioP1;P1;durP2;ratioP2;P2;SDS_P1;SDS_P2;PMS_P1;PMS_P2;Temp;Humidity;BMP_temperature;BMP_pressure;BME280_temperature;BME280_humidity;BME280_pressure;Samples;Min_cycle;Max_cycle;Signal;HPM_P1;HPM_P2
2022/07/03 00:01:40;;;;;;;13.77;11.50;;;;;;;24.04;70.89;99548.75;5055880;28;20176;-87
2022/07/03 00:04:06;;;;;;;15.57;10.93;;;;;;;23.26;70.78;99402.84;5060481;28;20170;-87
2022/07/03 00:06:33;;;;;;;14.30;11.03;;;;;;;23.43;72.40;99470.81;5057710;28;20225;-86
2022/07/03 00:08:59;;;;;;;12.93;11.17;;;;;;;24.25;74.01;99613.31;5060838;28;20153;-86
2022/07/03 00:11:25;;;;;;;15.60;11.23;;;;;;;24.08;74.12;99582.38;5054581;28;20158;-87
2022/07/03 00:13:50;;;;;;;13.40;10.70;;;;;;;20.87;75.39;99072.19;5053722;28;20161;-86
2022/07/03 00:16:16;;;;;;;12.57;11.13;;;;;;;22.71;75.02;99345.53;5053420;28;20169;-87
2022/07/03 00:18:42;;;;;;;16.20;11.03;;;;;;;22.46;74.22;99294.91;5053212;28;20200;-86
2022/07/03 00:21:10;;;;;;;11.80;10.60;;;;;;;24.35;73.90;99603.72;5053302;28;20166;-86
2022/07/03 00:24:01;;;;;;;15.03;10.57;;;;;;;23.86;75.71;99560.09;5053174;28;20193;-84
2022/07/03 00:26:30;;;;;;;13.47;10.50;;;;;;;23.48;77.59;99526.75;5053283;28;20732;-87
2022/07/03 00:28:59;;;;;;;12.40;10.90;;;;;;;23.04;81.44;99514.91;5034913;28;20169;-87
2022/07/03 00:31:27;;;;;;;13.10;11.30;;;;;;;21.42;82.43;99289.25;5053310;28;20245;-87
2022/07/03 00:33:55;;;;;;;13.10;10.47;;;;;;;21.16;83.52;99245.47;5062451;28;20244;-86
2022/07/03 00:36:21;;;;;;;14.00;10.80;;;;;;;20.07;83.54;99053.41;5091875;23;20234;-85
2022/07/03 00:38:46;;;;;;;14.33;10.97;;;;;;;22.98;82.55;99491.69;5033011;28;20297;-84
2022/07/03 00:41:26;;;;;;;29.43;23.93;;;;;;;22.99;81.17;99472.75;4999937;28;20689;-87
2022/07/03 00:43:51;;;;;;;23.27;20.30;;;;;;;22.31;81.05;99360.31;5015102;28;20189;-86
2022/07/03 00:46:20;;;;;;;15.53;11.57;;;;;;;23.09;80.42;99484.75;5014194;28;20631;-88
2022/07/03 00:48:48;;;;;;;15.40;11.37;;;;;;;22.13;81.37;99350.06;5012702;28;20197;-87
2022/07/03 00:51:15;;;;;;;13.50;10.37;;;;;;;22.65;82.89;99497.84;5013034;28;20171;-87
2022/07/03 00:53:42;;;;;;;12.97;10.60;;;;;;;21.48;82.51;99276.31;5013360;28;20178;-85
2022/07/03 00:56:10;;;;;;;13.67;10.43;;;;;;;20.84;83.73;99215.44;5012726;28;20687;-86
2022/07/03 00:58:38;;;;;;;12.23;10.37;;;;;;;21.55;84.42;99319.25;5012367;28;20202;-85
2022/07/03 01:01:03;;;;;;;11.10;9.83;;;;;;;21.36;85.35;99299.53;5012526;28;20305;-86
2022/07/03 01:03:34;;;;;;;12.17;10.37;;;;;;;22.17;85.68;99460.09;5018680;28;20199;-86
2022/07/03 01:06:09;;;;;;;12.17;10.50;;;;;;;21.81;86.02;99383.63;5022740;28;20170;-87
2022/07/03 01:08:47;;;;;;;12.20;10.70;;;;;;;20.34;85.15;99126.28;5015234;28;20250;-87
2022/07/03 01:11:24;;;;;;;11.17;10.00;;;;;;;20.89;85.55;99235.19;5013554;28;20183;-87
2022/07/03 01:14:16;;;;;;;14.30;10.50;;;;;;;22.87;86.37;99554.56;5013765;28;20252;-88
2022/07/03 01:17:02;;;;;;;14.33;10.50;;;;;;;22.88;86.35;99548.53;5013255;28;20722;-86
2022/07/03 01:20:01;;;;;;;14.77;11.73;;;;;;;22.59;88.27;99547.72;5012836;28;20202;-87
2022/07/03 01:22:54;;;;;;;15.77;11.77;;;;;;;22.46;90.03;99542.59;4955522;28;20792;-87
2022/07/03 01:25:28;;;;;;;14.90;11.77;;;;;;;20.91;89.34;99269.47;4971754;28;20180;-85
2022/07/03 01:28:19;;;;;;;15.50;11.50;;;;;;;22.66;89.27;99552.03;4971764;28;20291;-86
2022/07/03 01:30:49;;;;;;;14.63;11.80;;;;;;;22.11;88.99;99462.69;4955091;28;20180;-87
2022/07/03 01:33:21;;;;;;;14.40;12.20;;;;;;;19.88;88.20;99057.69;4971730;28;20658;-87
2022/07/03 01:36:01;;;;;;;15.03;11.47;;;;;;;22.77;88.40;99552.03;4971591;28;20327;-85
2022/07/03 01:38:28;;;;;;;15.93;11.93;;;;;;;22.21;88.66;99461.81;4971407;28;20693;-86
2022/07/03 01:40:55;;;;;;;15.83;11.87;;;;;;;22.41;90.41;99550.34;4971514;28;20561;-88
2022/07/03 01:43:27;;;;;;;17.03;12.10;;;;;;;22.32;91.65;99560.66;4972243;28;20177;-89
2022/07/03 01:45:55;;;;;;;15.47;12.20;;;;;;;22.22;92.38;99558.97;4971964;28;20339;-88
2022/07/03 01:48:22;;;;;;;16.90;12.90;;;;;;;21.62;92.38;99442.06;4970777;28;20188;-84
2022/07/03 01:50:49;;;;;;;16.93;12.60;;;;;;;19.88;92.27;99181.88;4970650;28;20254;-87
2022/07/03 01:53:16;;;;;;;16.17;12.53;;;;;;;21.41;91.74;99418.88;4971692;28;20184;-86
2022/07/03 01:55:42;;;;;;;14.43;11.73;;;;;;;20.37;91.62;99236.84;4971093;28;20577;-86
2022/07/03 01:58:09;;;;;;;15.27;11.93;;;;;;;21.86;94.39;99540.88;4980892;28;20751;-87
2022/07/03 02:01:01;;;;;;;14.03;11.77;;;;;;;20.63;93.32;99305.50;5012192;28;20166;-86
2022/07/03 02:03:31;;;;;;;15.03;11.70;;;;;;;21.36;93.93;99448.06;5014729;28;20178;-87
2022/07/03 02:06:07;;;;;;;15.03;11.30;;;;;;;22.04;94.83;99544.34;5014839;28;20175;-87
2022/07/03 02:08:48;;;;;;;15.13;11.80;;;;;;;21.97;94.65;99550.38;5015450;28;20178;-87
2022/07/03 02:11:18;;;;;;;15.60;11.77;;;;;;;21.61;97.20;99551.16;5015037;28;20167;-86
2022/07/03 02:14:04;;;;;;;14.27;11.90;;;;;;;21.84;95.81;99555.50;5015830;28;20182;-88
2022/07/03 02:16:43;;;;;;;14.80;11.90;;;;;;;20.58;95.91;99357.78;5015050;28;20630;-86
2022/07/03 02:19:12;;;;;;;14.10;11.70;;;;;;;21.92;95.02;99553.81;4997303;28;20202;-86
2022/07/03 02:21:44;;;;;;;14.60;11.90;;;;;;;21.90;94.53;99560.66;5014514;28;20171;-86
2022/07/03 02:24:16;;;;;;;14.17;11.83;;;;;;;21.64;95.63;99558.91;5014726;28;20167;-86
2022/07/03 02:26:46;;;;;;;14.87;12.07;;;;;;;20.58;97.17;99441.78;5014551;28;20167;-86
2022/07/03 02:29:21;;;;;;;16.90;12.57;;;;;;;21.17;98.92;99561.34;5021591;28;20163;-87
2022/07/03 02:31:57;;;;;;;17.23;12.87;;;;;;;19.38;99.93;99260.38;5017767;28;20663;-84
2022/07/03 02:34:23;;;;;;;18.70;12.63;;;;;;;17.92;98.39;98994.31;5014444;28;20240;-84
2022/07/03 02:36:53;;;;;;;15.83;12.40;;;;;;;17.43;99.81;98935.81;5014640;28;20586;-84
2022/07/03 02:39:35;;;;;;;18.33;13.70;;;;;;;18.08;100.00;99093.47;5014747;28;20281;-85
2022/07/03 02:42:04;;;;;;;18.30;13.67;;;;;;;18.40;100.00;99185.16;4997775;28;20194;-85
2022/07/03 02:44:55;;;;;;;18.93;13.77;;;;;;;20.77;100.00;99564.53;5017539;28;20174;-86
2022/07/03 02:47:32;;;;;;;20.60;14.13;;;;;;;20.71;100.00;99555.94;4974607;28;20259;-84
2022/07/03 02:50:02;;;;;;;17.47;13.63;;;;;;;20.78;100.00;99563.69;4973423;28;20183;-85
2022/07/03 02:53:03;;;;;;;16.17;13.43;;;;;;;20.03;100.00;99444.03;4973181;28;20219;-83
2022/07/03 02:55:43;;;;;;;19.57;13.37;;;;;;;18.89;100.00;99246.31;4918159;29;20193;-83
2022/07/03 02:58:26;;;;;;;18.90;13.70;;;;;;;20.87;100.00;99565.47;4940709;29;20202;-85
2022/07/03 03:01:06;;;;;;;17.87;13.83;;;;;;;20.41;100.00;99510.28;4941656;29;20209;-88
2022/07/03 03:03:32;;;;;;;19.80;14.10;;;;;;;18.35;100.00;99151.78;4920838;29;20237;-84
2022/07/03 03:06:04;;;;;;;20.90;13.47;;;;;;;20.17;100.00;99479.25;4917448;29;20280;-86
2022/07/03 03:08:48;;;;;;;16.47;13.77;;;;;;;20.40;100.00;99501.75;4916209;29;20188;-86
2022/07/03 03:11:44;;;;;;;21.27;14.23;;;;;;;20.86;100.00;99564.59;4915491;29;20252;-87
2022/07/03 03:14:17;;;;;;;18.53;14.10;;;;;;;18.85;100.00;99208.66;4914232;29;20578;-86
2022/07/03 03:16:47;;;;;;;17.87;14.53;;;;;;;20.35;100.00;99492.28;4899101;29;20182;-86
2022/07/03 03:19:14;;;;;;;19.13;14.57;;;;;;;18.62;100.00;99202.50;4915862;29;20260;-86
2022/07/03 03:21:57;;;;;;;20.13;14.87;;;;;;;19.66;100.00;99341.03;5060018;23;20245;-85
2022/07/03 03:24:24;;;;;;;18.17;14.63;;;;;;;18.82;100.00;99200.94;5049306;28;20174;-87
2022/07/03 03:26:50;;;;;;;18.63;15.27;;;;;;;19.52;100.00;99319.53;5046105;28;20555;-88
2022/07/03 03:29:16;;;;;;;20.20;15.53;;;;;;;16.99;100.00;98915.78;5040823;28;20177;-85
2022/07/03 03:31:42;;;;;;;17.93;15.07;;;;;;;19.47;100.00;99346.88;5043157;28;20155;-89
2022/07/03 03:34:10;;;;;;;19.03;15.03;;;;;;;16.76;100.00;98873.78;5044723;28;20173;-87
2022/07/03 03:36:35;;;;;;;20.40;14.43;;;;;;;18.42;100.00;99125.38;5037943;28;20212;-83
2022/07/03 03:39:01;;;;;;;21.43;13.90;;;;;;;20.86;100.00;99540.56;5033091;28;20238;-84
2022/07/03 03:41:27;;;;;;;16.57;13.37;;;;;;;17.23;100.00;98968.88;5032913;28;20206;-84
2022/07/03 03:43:52;;;;;;;20.77;14.10;;;;;;;19.55;100.00;99351.25;5032699;28;20170;-84
2022/07/03 03:46:17;;;;;;;20.17;14.10;;;;;;;18.55;100.00;99134.91;5033591;28;20158;-84
2022/07/03 03:48:43;;;;;;;20.07;13.87;;;;;;;18.43;100.00;99141.63;5032484;28;20169;-85
2022/07/03 03:51:09;;;;;;;18.70;13.73;;;;;;;19.39;100.00;99327.13;5032957;28;20224;-84
2022/07/03 03:53:34;;;;;;;17.70;13.90;;;;;;;20.32;100.00;99457.13;5031953;28;20177;-84
2022/07/03 03:56:03;;;;;;;17.53;13.53;;;;;;;18.33;100.00;99122.75;5033157;28;20194;-84
2022/07/03 03:58:30;;;;;;;18.80;13.60;;;;;;;19.99;100.00;99343.78;5034640;28;20194;-86
2022/07/03 04:00:59;;;;;;;16.43;13.57;;;;;;;19.38;100.00;99270.66;5032862;28;20173;-86
2022/07/03 04:03:26;;;;;;;20.73;13.63;;;;;;;17.90;100.00;99043.81;5033223;28;20554;-83
2022/07/03 04:05:52;;;;;;;19.07;13.93;;;;;;;19.78;100.00;99364.22;5032921;28;20166;-82
2022/07/03 04:08:19;;;;;;;18.57;14.50;;;;;;;20.98;100.00;99528.63;5033396;28;20169;-83
2022/07/03 04:10:45;;;;;;;20.50;13.67;;;;;;;20.08;100.00;99348.97;5034244;28;20166;-84
2022/07/03 04:13:10;;;;;;;18.47;13.80;;;;;;;18.83;100.00;99159.06;5033610;28;20169;-84
2022/07/03 04:15:36;;;;;;;16.53;13.27;;;;;;;17.97;100.00;99005.44;5032821;28;20666;-83
2022/07/03 04:18:01;;;;;;;21.97;14.13;;;;;;;19.39;100.00;99170.53;5032757;28;20168;-84
2022/07/03 04:20:27;;;;;;;17.27;14.27;;;;;;;20.30;100.00;99288.25;5033588;28;20248;-83
2022/07/03 04:22:52;;;;;;;24.13;14.87;;;;;;;20.24;98.13;99234.22;5039435;28;20173;-84
2022/07/03 04:25:18;;;;;;;18.03;14.33;;;;;;;22.40;96.77;99576.13;5039526;28;20173;-84
2022/07/03 04:27:43;;;;;;;21.40;14.73;;;;;;;20.78;97.13;99310.66;5043763;28;20646;-84
2022/07/03 04:30:10;;;;;;;16.73;13.77;;;;;;;20.02;96.23;99163.91;5034705;28;20181;-84
2022/07/03 04:32:38;;;;;;;18.17;14.43;;;;;;;21.97;97.06;99540.06;5036866;28;20182;-86
2022/07/03 04:35:04;;;;;;;21.50;14.30;;;;;;;20.48;96.18;99253.16;5035655;28;20591;-83
2022/07/03 04:37:30;;;;;;;19.27;14.53;;;;;;;20.84;96.24;99333.81;5034205;28;20261;-85
2022/07/03 04:39:55;;;;;;;17.53;14.70;;;;;;;21.95;95.14;99473.91;5030797;28;20643;-85
2022/07/03 04:42:20;;;;;;;18.23;15.17;;;;;;;22.24;97.29;99572.72;5031958;28;20166;-85
2022/07/03 04:44:46;;;;;;;19.40;14.60;;;;;;;18.60;97.31;98993.91;5031929;28;20241;-86
2022/07/03 04:47:12;;;;;;;21.20;14.20;;;;;;;22.02;96.39;99528.03;5030966;28;20654;-85
2022/07/03 04:49:38;;;;;;;16.07;13.93;;;;;;;20.50;95.56;99251.44;5031597;28;20582;-86
2022/07/03 04:52:04;;;;;;;19.20;13.90;;;;;;;22.48;93.33;99538.28;5039851;28;20165;-86
2022/07/03 04:54:29;;;;;;;17.40;13.87;;;;;;;21.20;92.89;99318.44;5032523;28;20375;-88
2022/07/03 04:56:55;;;;;;;18.70;13.13;;;;;;;21.18;92.50;99331.28;5038458;28;20166;-87
2022/07/03 04:59:23;;;;;;;16.27;14.37;;;;;;;20.97;92.24;99299.50;5034002;28;20190;-86
2022/07/03 05:01:49;;;;;;;17.07;13.17;;;;;;;22.33;90.80;99465.19;5033093;28;20170;-86
2022/07/03 05:04:15;;;;;;;16.83;13.53;;;;;;;20.12;89.99;99092.81;5031984;28;20568;-85
2022/07/03 05:06:41;;;;;;;18.30;13.63;;;;;;;21.61;88.70;99308.94;5033846;28;20178;-85
2022/07/03 05:09:06;;;;;;;17.10;13.03;;;;;;;21.59;89.02;99295.19;5027082;28;20186;-84
2022/07/03 05:11:32;;;;;;;17.13;13.17;;;;;;;22.43;85.72;99352.53;5030959;28;20177;-87
2022/07/03 05:13:59;;;;;;;17.23;13.27;;;;;;;20.85;85.69;99121.97;5034085;28;20162;-86
2022/07/03 05:16:25;;;;;;;17.80;13.33;;;;;;;21.33;86.03;99211.13;5032790;28;20191;-86
2022/07/03 05:18:50;;;;;;;17.33;13.13;;;;;;;23.71;84.93;99596.41;5039558;28;20197;-85
2022/07/03 05:21:16;;;;;;;16.37;12.70;;;;;;;23.61;83.20;99474.97;5056338;28;20206;-88
2022/07/03 05:23:41;;;;;;;13.37;11.73;;;;;;;21.74;82.46;99184.34;5056907;28;20162;-87
2022/07/03 05:26:07;;;;;;;13.67;11.63;;;;;;;23.66;81.17;99518.00;5037578;28;20170;-87
2022/07/03 05:28:32;;;;;;;14.17;12.03;;;;;;;22.10;81.47;99273.59;5034848;28;20158;-87
2022/07/03 05:30:58;;;;;;;14.97;11.07;;;;;;;21.71;78.94;99155.16;5032498;28;20543;-86
2022/07/03 05:33:23;;;;;;;14.60;11.73;;;;;;;23.47;78.80;99475.06;5035220;28;20264;-83
2022/07/03 05:35:49;;;;;;;12.77;11.37;;;;;;;24.02;77.54;99499.63;5032538;28;20627;-85
2022/07/03 05:39:31;;;;;;;13.03;11.17;;;;;;;21.95;76.96;99200.63;5034475;28;20204;-84
2022/07/03 05:41:00;;;;;;;13.00;11.23;;;;;;;21.27;77.40;99092.66;5035359;28;20173;-82
2022/07/03 05:43:25;;;;;;;16.20;11.87;;;;;;;21.19;77.20;99061.81;5035863;28;20216;-84
2022/07/03 05:45:51;;;;;;;12.80;11.23;;;;;;;24.18;78.61;99583.16;5037345;28;20154;-84
2022/07/03 05:48:16;;;;;;;13.73;11.53;;;;;;;21.97;77.54;99206.63;5036068;28;20162;-86
2022/07/03 05:50:42;;;;;;;13.33;11.70;;;;;;;24.04;77.11;99502.19;5034571;28;20189;-85
2022/07/03 05:53:07;;;;;;;16.30;12.63;;;;;;;23.97;76.01;99460.00;5035636;28;20166;-85
2022/07/03 05:55:33;;;;;;;13.30;11.90;;;;;;;22.39;73.55;99117.81;5035801;28;20177;-85
2022/07/03 05:57:58;;;;;;;13.40;11.70;;;;;;;24.20;72.07;99391.69;5035646;28;20173;-85
2022/07/03 06:00:23;;;;;;;14.10;11.53;;;;;;;23.88;72.54;99341.13;5035412;28;20168;-84
2022/07/03 06:02:49;;;;;;;12.60;11.33;;;;;;;25.66;71.72;99575.50;5034235;28;20170;-87
2022/07/03 06:05:14;;;;;;;15.20;11.73;;;;;;;24.94;69.09;99478.84;5034852;28;20257;-88
2022/07/03 06:07:40;;;;;;;14.37;11.40;;;;;;;25.10;69.22;99507.13;5032737;28;20178;-86
2022/07/03 06:10:06;;;;;;;12.27;10.80;;;;;;;24.80;69.97;99468.66;5032634;28;20177;-85
2022/07/03 06:12:31;;;;;;;14.37;11.10;;;;;;;24.32;69.19;99353.59;5028631;28;20174;-86
2022/07/03 06:14:56;;;;;;;12.73;10.87;;;;;;;24.58;66.25;99302.31;5035153;28;20619;-87
2022/07/03 06:17:22;;;;;;;13.90;11.77;;;;;;;24.91;65.61;99319.16;5034735;28;20216;-86
2022/07/03 06:19:47;;;;;;;13.80;11.30;;;;;;;24.60;64.01;99243.63;5033705;28;20201;-84
2022/07/03 06:22:13;;;;;;;14.20;12.23;;;;;;;24.04;65.05;99184.88;5034531;28;20229;-85
2022/07/03 06:24:38;;;;;;;15.17;11.60;;;;;;;25.08;64.60;99335.25;5035014;28;20158;-86
2022/07/03 06:27:04;;;;;;;12.60;11.30;;;;;;;24.07;64.41;99156.41;5017476;28;20190;-87
2022/07/03 06:29:29;;;;;;;13.03;11.20;;;;;;;24.65;63.93;99270.28;5036550;28;20170;-87
2022/07/03 06:31:55;;;;;;;12.83;10.93;;;;;;;24.18;64.93;99186.44;5018068;28;20166;-87
2022/07/03 06:34:20;;;;;;;13.60;12.10;;;;;;;25.60;63.72;99414.84;5016339;28;20162;-86
2022/07/03 06:36:46;;;;;;;14.90;12.00;;;;;;;26.52;61.51;99457.28;5035555;28;20170;-86
2022/07/03 06:39:11;;;;;;;15.25;11.93;;;;;;;26.23;59.49;99316.81;5021209;28;20659;-85
2022/07/03 06:41:36;;;;;;;12.70;11.23;;;;;;;25.63;59.33;99282.50;5036362;28;20659;-87
2022/07/03 06:44:02;;;;;;;13.43;11.60;;;;;;;26.50;60.70;99477.22;5035195;28;20167;-87
2022/07/03 06:46:27;;;;;;;14.57;11.63;;;;;;;25.47;58.98;99211.06;5035639;28;20170;-86
2022/07/03 06:48:53;;;;;;;16.65;12.43;;;;;;;27.28;57.98;99446.13;5038996;28;20569;-85
2022/07/03 06:51:18;;;;;;;19.55;13.20;;;;;;;26.52;56.20;99264.22;5047023;28;20173;-88
2022/07/03 06:53:43;;;;;;;16.48;13.90;;;;;;;28.17;55.98;99487.34;5058225;28;20174;-87
2022/07/03 06:56:09;;;;;;;16.38;12.38;;;;;;;27.97;57.33;99495.63;5046278;28;20166;-87
2022/07/03 06:58:34;;;;;;;13.13;11.32;;;;;;;27.32;57.33;99494.56;5040640;28;20196;-86
2022/07/03 07:01:00;;;;;;;14.20;11.75;;;;;;;27.45;58.48;99493.44;5043907;28;20176;-86
2022/07/03 07:03:25;;;;;;;12.95;11.23;;;;;;;27.84;55.17;99452.59;5039895;28;20630;-86
2022/07/03 07:05:50;;;;;;;12.80;11.50;;;;;;;26.26;55.21;99169.63;5034258;28;20162;-87
2022/07/03 07:08:16;;;;;;;12.98;11.38;;;;;;;25.68;57.68;99179.56;5034006;28;20170;-86
2022/07/03 07:10:41;;;;;;;12.63;11.27;;;;;;;25.86;56.42;99171.38;5034041;28;20194;-87
2022/07/03 07:13:08;;;;;;;12.18;10.68;;;;;;;27.76;56.22;99480.56;5034353;28;20583;-86
2022/07/03 07:15:33;;;;;;;11.98;10.70;;;;;;;27.76;54.83;99446.72;5033636;28;20219;-87
2022/07/03 07:17:59;;;;;;;11.35;10.25;;;;;;;26.75;55.25;99277.56;5034556;28;20246;-84
2022/07/03 07:20:24;;;;;;;14.77;11.27;;;;;;;28.30;54.36;99461.81;5033951;28;20223;-84
2022/07/03 07:22:50;;;;;;;13.10;11.35;;;;;;;26.45;53.60;99132.84;5033632;28;21081;-87
2022/07/03 07:25:26;;;;;;;18.08;11.20;;;;;;;26.80;53.53;99197.78;5033904;28;20598;-88
2022/07/03 07:27:51;;;;;;;12.35;10.73;;;;;;;26.29;52.13;99060.53;5036092;28;20165;-86
2022/07/03 07:30:16;;;;;;;12.68;11.30;;;;;;;28.65;52.39;99438.31;5035010;28;20178;-86
2022/07/03 07:32:42;;;;;;;13.52;11.43;;;;;;;27.45;52.47;99228.16;5038065;28;20169;-86
2022/07/03 07:35:08;;;;;;;14.07;11.68;;;;;;;26.57;51.45;99042.50;5040641;28;20200;-87
2022/07/03 07:37:33;;;;;;;13.23;11.82;;;;;;;27.78;49.57;99163.06;5034461;28;20260;-85
2022/07/03 07:39:59;;;;;;;14.85;11.27;;;;;;;30.26;49.11;99533.25;5033701;28;20627;-86
2022/07/03 07:42:24;;;;;;;15.95;11.43;;;;;;;29.37;49.14;99403.06;5045320;28;20200;-88
2022/07/03 07:44:53;;;;;;;14.32;12.77;;;;;;;28.33;49.49;99191.75;5057868;28;20217;-83
2022/07/03 07:47:18;;;;;;;13.15;11.05;;;;;;;28.53;49.23;99266.66;5052352;28;20168;-84
2022/07/03 07:49:44;;;;;;;12.02;10.80;;;;;;;30.36;48.67;99572.13;5045062;28;20166;-86
2022/07/03 07:52:09;;;;;;;13.25;11.23;;;;;;;29.11;47.08;99213.53;5010120;28;20199;-84
2022/07/03 07:54:35;;;;;;;13.23;10.27;;;;;;;29.74;44.98;99284.38;5036745;28;20161;-86
2022/07/03 07:57:01;;;;;;;13.55;9.35;;;;;;;29.36;44.03;99224.84;5016417;28;20554;-83
2022/07/03 07:59:26;;;;;;;10.77;9.68;;;;;;;30.38;43.77;99412.69;5032537;28;20221;-83
2022/07/03 08:07:20;;;;;;;11.65;9.95;;;;;;;31.87;43.02;99542.06;5032963;28;20222;-85
2022/07/03 08:09:45;;;;;;;11.07;9.80;;;;;;;31.09;44.14;99526.84;5032880;28;20189;-84
2022/07/03 08:12:10;;;;;;;13.13;9.68;;;;;;;30.19;45.14;99435.13;5032324;28;20181;-85
2022/07/03 08:14:37;;;;;;;11.88;9.25;;;;;;;29.43;46.56;99351.56;5032896;28;20154;-83
2022/07/03 08:17:03;;;;;;;11.65;9.52;;;;;;;31.16;44.58;99541.38;5033247;28;20164;-84
2022/07/03 08:19:29;;;;;;;11.55;9.02;;;;;;;30.47;44.39;99422.78;5037589;28;20192;-87
2022/07/03 08:22:33;;;;;;;11.82;9.98;;;;;;;28.76;45.44;99180.81;5032928;28;20217;-86
2022/07/03 08:25:31;;;;;;;11.48;10.05;;;;;;;28.06;44.81;99028.59;5015649;28;20637;-85
2022/07/03 08:28:41;;;;;;;10.60;9.55;;;;;;;30.91;44.84;99541.41;5035608;28;20187;-86
2022/07/03 08:32:50;;;;;;;15.73;10.48;;;;;;;28.43;44.74;99044.69;5034970;28;20179;-85
2022/07/03 08:38:42;;;;;;;30.63;15.63;;;;;;;30.17;43.50;99205.31;4821838;29;20227;-86
2022/07/03 08:41:47;;;;;;;10.45;9.07;;;;;;;30.21;42.32;99227.78;4823916;29;20671;-86
2022/07/03 08:44:55;;;;;;;11.93;9.38;;;;;;;32.00;40.28;99440.28;4821673;29;20196;-85
2022/07/03 08:47:23;;;;;;;12.32;9.35;;;;;;;30.99;40.65;99243.84;4823684;29;20227;-86
2022/07/03 08:49:49;;;;;;;9.63;8.63;;;;;;;31.58;39.20;99367.00;4822177;29;20209;-83
2022/07/03 08:52:15;;;;;;;11.23;8.70;;;;;;;31.71;39.20;99313.19;4822346;29;20232;-87
2022/07/03 08:54:46;;;;;;;12.55;8.85;;;;;;;30.58;38.86;99080.84;4825880;29;20225;-86
2022/07/03 08:57:21;;;;;;;13.90;10.00;;;;;;;32.48;38.00;99356.88;4806730;29;20196;-87
2022/07/03 08:59:57;;;;;;;11.38;9.32;;;;;;;31.62;37.83;99214.09;4831662;29;20197;-87
2022/07/03 09:02:23;;;;;;;11.40;9.40;;;;;;;32.22;37.03;99235.84;4809808;29;20764;-88
2022/07/03 09:04:51;;;;;;;22.13;12.27;;;;;;;32.51;37.22;99236.16;4823007;29;20234;-86
2022/07/03 09:07:19;;;;;;;9.90;8.25;;;;;;;33.03;35.89;99313.19;4823286;29;20299;-87
2022/07/03 09:09:45;;;;;;;8.77;7.88;;;;;;;30.74;34.00;98935.50;4910749;28;20185;-87
2022/07/03 09:12:12;;;;;;;13.88;8.20;;;;;;;31.58;34.34;99039.78;5037028;28;20166;-89
2022/07/03 09:14:37;;;;;;;8.85;7.95;;;;;;;30.64;34.67;98986.50;5040617;28;20323;-87
2022/07/03 09:17:09;;;;;;;11.43;7.28;;;;;;;29.91;33.85;98969.63;5045412;28;20166;-86
2022/07/03 09:19:42;;;;;;;9.10;6.90;;;;;;;33.52;34.84;99529.56;5021502;28;20201;-89
2022/07/03 09:22:26;;;;;;;9.15;7.97;;;;;;;31.98;34.84;99261.34;5034249;28;20230;-87
2022/07/03 09:24:53;;;;;;;9.90;8.15;;;;;;;33.17;35.28;99460.34;5036988;28;20240;-87
2022/07/03 09:27:22;;;;;;;10.38;8.82;;;;;;;33.13;35.34;99492.03;5044594;28;20166;-88
2022/07/03 09:29:58;;;;;;;9.60;7.72;;;;;;;30.26;35.44;99002.97;5043826;28;20224;-85
2022/07/03 09:32:24;;;;;;;10.77;8.20;;;;;;;31.73;36.41;99196.13;5039802;28;20181;-84
2022/07/03 09:35:20;;;;;;;9.68;7.88;;;;;;;32.24;34.28;99200.78;5040040;28;20623;-85
2022/07/03 09:38:01;;;;;;;8.45;7.65;;;;;;;32.04;34.18;99180.75;5039411;28;20166;-84
2022/07/03 09:40:48;;;;;;;10.70;7.63;;;;;;;33.53;34.58;99525.16;5035803;28;20166;-86
2022/07/03 09:43:14;;;;;;;9.18;7.60;;;;;;;33.73;34.52;99520.66;5038415;28;20544;-87
2022/07/03 09:45:58;;;;;;;8.48;7.25;;;;;;;33.92;33.91;99520.63;5048934;28;20181;-88
2022/07/03 09:48:27;;;;;;;9.80;7.10;;;;;;;33.58;34.47;99515.31;5050276;28;20166;-87
2022/07/03 09:51:14;;;;;;;8.95;7.80;;;;;;;33.49;34.57;99519.19;5039181;28;20162;-86
2022/07/03 09:53:51;;;;;;;9.32;7.60;;;;;;;31.92;34.17;99196.16;5035559;28;20220;-86
2022/07/03 09:56:19;;;;;;;8.25;7.45;;;;;;;30.76;33.85;98999.03;5039326;28;20158;-85
2022/07/03 09:59:00;;;;;;;9.00;7.53;;;;;;;32.83;34.50;99341.28;5036899;28;20193;-86
2022/07/03 10:01:26;;;;;;;10.15;7.88;;;;;;;30.45;34.52;98972.56;5037821;28;20241;-84
2022/07/03 10:03:51;;;;;;;9.27;7.50;;;;;;;31.67;35.12;99183.34;5042997;28;20169;-86
2022/07/03 10:06:17;;;;;;;9.80;8.10;;;;;;;31.70;35.52;99188.41;5047106;28;20174;-86
2022/07/03 10:08:44;;;;;;;9.77;7.47;;;;;;;32.27;34.54;99286.25;5059657;28;20162;-84
2022/07/03 10:11:09;;;;;;;7.40;6.70;;;;;;;33.20;34.72;99502.22;5059880;28;20189;-84
2022/07/03 10:13:40;;;;;;;9.40;7.38;;;;;;;29.70;35.12;98951.31;5060376;28;20154;-86
2022/07/03 10:16:09;;;;;;;8.70;7.65;;;;;;;31.14;35.27;99095.88;5057172;28;20213;-87
2022/07/03 10:18:39;;;;;;;10.27;7.07;;;;;;;32.40;34.43;99248.06;5042618;28;20229;-87
2022/07/03 10:21:12;;;;;;;8.73;7.40;;;;;;;32.78;33.80;99325.78;5035593;28;20225;-85
2022/07/03 10:23:38;;;;;;;8.52;7.47;;;;;;;30.61;34.37;98930.91;5035504;28;20162;-86
2022/07/03 10:26:07;;;;;;;7.93;6.70;;;;;;;31.05;34.30;98987.28;5038198;28;20239;-84
2022/07/03 10:28:33;;;;;;;10.15;7.10;;;;;;;32.31;34.42;99210.03;5040685;28;20184;-85
2022/07/03 10:30:59;;;;;;;9.80;7.50;;;;;;;30.44;34.34;98917.75;5040654;28;20225;-85
2022/07/03 10:33:31;;;;;;;9.98;7.60;;;;;;;30.54;34.74;98922.50;5038716;28;20162;-85
2022/07/03 10:35:58;;;;;;;8.00;7.20;;;;;;;30.65;34.79;98941.16;5024167;28;20241;-84
2022/07/03 10:38:29;;;;;;;9.93;7.50;;;;;;;34.08;34.89;99476.06;5042861;28;20173;-85
2022/07/03 10:46:43;;;;;;;8.35;7.55;;;;;;;32.50;34.96;99263.28;5042095;28;20212;-85
2022/07/03 10:49:12;;;;;;;10.75;7.38;;;;;;;30.97;34.32;98965.88;5039837;28;20155;-86
2022/07/03 10:51:59;;;;;;;9.18;7.53;;;;;;;31.09;34.68;98962.69;5043567;28;20197;-87
2022/07/03 10:54:36;;;;;;;9.60;7.22;;;;;;;33.12;34.37;99269.91;5037639;28;20241;-83
2022/07/03 10:57:08;;;;;;;8.77;7.88;;;;;;;31.26;34.58;98954.88;5036537;28;20188;-85
2022/07/03 10:59:43;;;;;;;9.23;7.88;;;;;;;34.57;35.22;99461.22;5036198;28;20218;-86
2022/07/03 11:02:27;;;;;;;9.70;7.47;;;;;;;34.09;35.04;99454.94;5036890;28;20158;-85
2022/07/03 11:05:03;;;;;;;8.80;7.90;;;;;;;34.03;34.30;99457.88;5034519;28;20165;-84
2022/07/03 11:07:31;;;;;;;9.00;7.72;;;;;;;30.87;35.25;98947.13;5017211;28;20180;-83
2022/07/03 11:10:06;;;;;;;8.13;7.43;;;;;;;34.16;34.28;99450.22;5035193;28;20151;-83
2022/07/03 11:12:53;;;;;;;9.23;8.32;;;;;;;34.15;35.42;99444.13;5037234;28;20249;-83
2022/07/03 11:15:36;;;;;;;10.80;7.72;;;;;;;34.30;34.70;99440.69;5035837;28;20192;-85
2022/07/03 11:18:27;;;;;;;11.18;7.43;;;;;;;34.50;34.55;99439.66;5035691;28;20158;-84
2022/07/03 11:20:52;;;;;;;9.13;8.23;;;;;;;33.97;34.71;99446.81;5022534;28;20225;-83
2022/07/03 11:23:27;;;;;;;9.07;8.02;;;;;;;33.84;35.07;99434.28;5035272;28;20649;-84
2022/07/03 11:25:59;;;;;;;9.38;8.07;;;;;;;33.76;34.91;99428.56;5040281;28;20166;-86
2022/07/03 11:28:31;;;;;;;9.73;8.70;;;;;;;34.02;35.13;99435.13;5040829;28;20185;-85
2022/07/03 11:31:15;;;;;;;9.45;7.82;;;;;;;34.18;33.96;99424.69;5037845;28;20227;-84
2022/07/03 11:33:46;;;;;;;9.15;8.25;;;;;;;33.77;35.23;99405.78;5041291;28;20166;-86
2022/07/03 11:36:15;;;;;;;9.85;8.60;;;;;;;34.18;34.82;99425.56;5037553;28;20177;-87
2022/07/03 11:38:41;;;;;;;11.05;8.65;;;;;;;33.62;35.45;99254.25;5033445;28;20182;-85
2022/07/03 11:41:09;;;;;;;12.00;8.48;;;;;;;33.02;33.87;99125.19;5033507;28;20162;-85
2022/07/03 11:43:34;;;;;;;11.73;8.60;;;;;;;33.69;33.38;99101.50;5037899;28;20169;-85
2022/07/03 11:46:04;;;;;;;11.50;8.13;;;;;;;36.51;32.24;99433.34;5035455;28;20192;-84
2022/07/03 11:48:31;;;;;;;10.50;8.32;;;;;;;35.33;29.99;99155.06;5035059;28;20589;-84
2022/07/03 11:51:03;;;;;;;9.48;8.00;;;;;;;37.22;29.93;99425.31;5033797;28;20250;-85